sensor_id;sensor_type;location;lat;lon;timestamp;temperature;humidity
16441;DHT22;8330;-33.858;151.184;2022-12-16T00:00:27;20.90;91.30
16441;DHT22;8330;-33.858;151.184;2022-12-16T00:02:59;20.70;91.30
16441;DHT22;8330;-33.858;151.184;2022-12-16T00:05:32;20.60;92.10
16441;DHT22;8330;-33.858;151.184;2022-12-16T00:08:07;20.90;93.00
16441;DHT22;8330;-33.858;151.184;2022-12-16T00:10:38;21.10;92.20
16441;DHT22;8330;-33.858;151.184;2022-12-16T00:13:21;21.30;91.10
16441;DHT22;8330;-33.858;151.184;2022-12-16T00:15:52;21.20;90.40
16441;DHT22;8330;-33.858;151.184;2022-12-16T00:18:24;21.30;90.90
16441;DHT22;8330;-33.858;151.184;2022-12-16T00:20:57;21.30;90.40
16441;DHT22;8330;-33.858;151.184;2022-12-16T00:23:28;21.10;90.90
16441;DHT22;8330;-33.858;151.184;2022-12-16T00:26:00;21.20;90.40
16441;DHT22;8330;-33.858;151.184;2022-12-16T00:28:31;21.40;91.30
16441;DHT22;8330;-33.858;151.184;2022-12-16T00:31:02;21.60;90.10
16441;DHT22;8330;-33.858;151.184;2022-12-16T00:33:33;21.50;90.60
16441;DHT22;8330;-33.858;151.184;2022-12-16T00:36:06;21.60;90.10
16441;DHT22;8330;-33.858;151.184;2022-12-16T00:38:38;21.70;89.30
16441;DHT22;8330;-33.858;151.184;2022-12-16T00:41:09;21.60;90.00
16441;DHT22;8330;-33.858;151.184;2022-12-16T00:43:39;21.50;90.30
16441;DHT22;8330;-33.858;151.184;2022-12-16T00:46:13;21.70;91.00
16441;DHT22;8330;-33.858;151.184;2022-12-16T00:48:44;21.70;90.50
16441;DHT22;8330;-33.858;151.184;2022-12-16T00:51:17;21.90;90.60
16441;DHT22;8330;-33.858;151.184;2022-12-16T00:53:48;22.00;90.00
16441;DHT22;8330;-33.858;151.184;2022-12-16T00:56:19;22.00;89.00
16441;DHT22;8330;-33.858;151.184;2022-12-16T00:58:50;21.80;89.70
16441;DHT22;8330;-33.858;151.184;2022-12-16T01:01:21;21.90;90.50
16441;DHT22;8330;-33.858;151.184;2022-12-16T01:03:54;22.00;90.10
16441;DHT22;8330;-33.858;151.184;2022-12-16T01:06:28;22.00;90.70
16441;DHT22;8330;-33.858;151.184;2022-12-16T01:08:59;22.00;90.90
16441;DHT22;8330;-33.858;151.184;2022-12-16T01:11:30;22.00;91.90
16441;DHT22;8330;-33.858;151.184;2022-12-16T01:14:01;21.90;91.60
16441;DHT22;8330;-33.858;151.184;2022-12-16T01:16:31;21.70;90.50
16441;DHT22;8330;-33.858;151.184;2022-12-16T01:19:03;21.50;88.70
16441;DHT22;8330;-33.858;151.184;2022-12-16T01:21:35;21.30;90.70
16441;DHT22;8330;-33.858;151.184;2022-12-16T01:24:07;21.20;90.90
16441;DHT22;8330;-33.858;151.184;2022-12-16T01:26:44;21.00;90.30
16441;DHT22;8330;-33.858;151.184;2022-12-16T01:29:15;20.90;91.80
16441;DHT22;8330;-33.858;151.184;2022-12-16T01:31:46;20.70;92.10
16441;DHT22;8330;-33.858;151.184;2022-12-16T01:34:17;20.90;92.10
16441;DHT22;8330;-33.858;151.184;2022-12-16T01:36:50;20.90;91.90
16441;DHT22;8330;-33.858;151.184;2022-12-16T01:39:21;21.00;92.20
16441;DHT22;8330;-33.858;151.184;2022-12-16T01:41:54;21.20;92.50
16441;DHT22;8330;-33.858;151.184;2022-12-16T01:44:25;21.30;92.60
16441;DHT22;8330;-33.858;151.184;2022-12-16T01:46:57;21.30;91.20
16441;DHT22;8330;-33.858;151.184;2022-12-16T01:49:34;21.20;91.40
16441;DHT22;8330;-33.858;151.184;2022-12-16T01:52:13;21.20;91.90
16441;DHT22;8330;-33.858;151.184;2022-12-16T01:54:48;21.20;91.90
16441;DHT22;8330;-33.858;151.184;2022-12-16T01:57:22;21.10;90.60
16441;DHT22;8330;-33.858;151.184;2022-12-16T01:59:56;21.00;90.60
16441;DHT22;8330;-33.858;151.184;2022-12-16T02:02:30;21.00;90.80
16441;DHT22;8330;-33.858;151.184;2022-12-16T02:05:02;21.20;91.10
16441;DHT22;8330;-33.858;151.184;2022-12-16T02:07:59;21.10;91.30
16441;DHT22;8330;-33.858;151.184;2022-12-16T02:10:43;21.10;92.30
16441;DHT22;8330;-33.858;151.184;2022-12-16T02:13:21;21.10;92.50
16441;DHT22;8330;-33.858;151.184;2022-12-16T02:16:01;21.30;92.30
16441;DHT22;8330;-33.858;151.184;2022-12-16T02:18:44;21.30;93.40
16441;DHT22;8330;-33.858;151.184;2022-12-16T02:21:42;21.50;93.00
16441;DHT22;8330;-33.858;151.184;2022-12-16T02:27:48;22.10;91.50
16441;DHT22;8330;-33.858;151.184;2022-12-16T02:30:39;22.30;91.00
16441;DHT22;8330;-33.858;151.184;2022-12-16T02:33:26;22.40;90.40
16441;DHT22;8330;-33.858;151.184;2022-12-16T02:36:09;22.40;90.20
16441;DHT22;8330;-33.858;151.184;2022-12-16T02:38:51;22.70;90.70
16441;DHT22;8330;-33.858;151.184;2022-12-16T02:41:36;22.70;88.50
16441;DHT22;8330;-33.858;151.184;2022-12-16T02:44:10;22.60;88.00
16441;DHT22;8330;-33.858;151.184;2022-12-16T02:46:54;22.60;88.00
16441;DHT22;8330;-33.858;151.184;2022-12-16T02:49:50;22.90;90.60
16441;DHT22;8330;-33.858;151.184;2022-12-16T02:52:24;23.10;90.30
16441;DHT22;8330;-33.858;151.184;2022-12-16T02:54:58;23.20;88.40
16441;DHT22;8330;-33.858;151.184;2022-12-16T02:58:05;23.40;86.20
16441;DHT22;8330;-33.858;151.184;2022-12-16T03:00:46;23.40;84.80
16441;DHT22;8330;-33.858;151.184;2022-12-16T03:03:24;23.30;85.70
16441;DHT22;8330;-33.858;151.184;2022-12-16T03:06:01;23.40;84.70
16441;DHT22;8330;-33.858;151.184;2022-12-16T03:08:35;23.20;84.90
16441;DHT22;8330;-33.858;151.184;2022-12-16T03:11:07;23.30;85.30
16441;DHT22;8330;-33.858;151.184;2022-12-16T03:13:40;23.40;86.60
16441;DHT22;8330;-33.858;151.184;2022-12-16T03:16:14;23.30;88.30
16441;DHT22;8330;-33.858;151.184;2022-12-16T03:18:51;23.50;88.20
16441;DHT22;8330;-33.858;151.184;2022-12-16T03:21:27;23.50;87.40
16441;DHT22;8330;-33.858;151.184;2022-12-16T03:24:00;23.70;87.00
16441;DHT22;8330;-33.858;151.184;2022-12-16T03:26:38;23.90;86.40
16441;DHT22;8330;-33.858;151.184;2022-12-16T03:29:12;23.90;86.10
16441;DHT22;8330;-33.858;151.184;2022-12-16T03:31:47;23.70;85.90
16441;DHT22;8330;-33.858;151.184;2022-12-16T03:34:26;24.00;87.30
16441;DHT22;8330;-33.858;151.184;2022-12-16T03:37:04;23.90;84.50
16441;DHT22;8330;-33.858;151.184;2022-12-16T03:39:38;23.70;86.10
16441;DHT22;8330;-33.858;151.184;2022-12-16T03:42:12;23.90;88.30
16441;DHT22;8330;-33.858;151.184;2022-12-16T03:44:45;23.90;85.20
16441;DHT22;8330;-33.858;151.184;2022-12-16T03:47:16;23.90;86.50
16441;DHT22;8330;-33.858;151.184;2022-12-16T03:49:51;23.80;86.00
16441;DHT22;8330;-33.858;151.184;2022-12-16T03:52:22;23.80;85.70
16441;DHT22;8330;-33.858;151.184;2022-12-16T03:54:54;23.70;85.60
16441;DHT22;8330;-33.858;151.184;2022-12-16T03:57:25;23.80;87.50
16441;DHT22;8330;-33.858;151.184;2022-12-16T03:59:56;23.90;87.00
16441;DHT22;8330;-33.858;151.184;2022-12-16T04:02:27;24.00;83.30
16441;DHT22;8330;-33.858;151.184;2022-12-16T04:04:59;24.10;82.30
16441;DHT22;8330;-33.858;151.184;2022-12-16T04:07:31;24.00;82.50
16441;DHT22;8330;-33.858;151.184;2022-12-16T04:10:03;24.10;82.90
16441;DHT22;8330;-33.858;151.184;2022-12-16T04:12:34;24.10;81.90
16441;DHT22;8330;-33.858;151.184;2022-12-16T04:15:20;24.20;81.80
16441;DHT22;8330;-33.858;151.184;2022-12-16T04:18:13;24.10;81.20
16441;DHT22;8330;-33.858;151.184;2022-12-16T04:21:02;23.90;83.50
16441;DHT22;8330;-33.858;151.184;2022-12-16T04:23:51;24.00;83.40
16441;DHT22;8330;-33.858;151.184;2022-12-16T04:26:40;24.10;83.10
16441;DHT22;8330;-33.858;151.184;2022-12-16T04:29:23;24.10;82.90
16441;DHT22;8330;-33.858;151.184;2022-12-16T04:31:57;24.40;82.00
16441;DHT22;8330;-33.858;151.184;2022-12-16T04:34:34;24.00;82.60
16441;DHT22;8330;-33.858;151.184;2022-12-16T04:37:05;24.30;81.40
16441;DHT22;8330;-33.858;151.184;2022-12-16T04:39:52;24.50;81.10
16441;DHT22;8330;-33.858;151.184;2022-12-16T04:42:39;24.60;83.30
16441;DHT22;8330;-33.858;151.184;2022-12-16T04:45:25;24.50;84.10
16441;DHT22;8330;-33.858;151.184;2022-12-16T04:48:12;24.80;79.60
16441;DHT22;8330;-33.858;151.184;2022-12-16T04:50:58;24.70;79.40
16441;DHT22;8330;-33.858;151.184;2022-12-16T04:53:46;24.50;81.00
16441;DHT22;8330;-33.858;151.184;2022-12-16T04:56:33;24.30;84.00
16441;DHT22;8330;-33.858;151.184;2022-12-16T04:59:20;24.70;83.10
16441;DHT22;8330;-33.858;151.184;2022-12-16T05:02:06;24.70;82.90
16441;DHT22;8330;-33.858;151.184;2022-12-16T05:04:53;25.00;80.50
16441;DHT22;8330;-33.858;151.184;2022-12-16T05:07:39;25.20;78.50
16441;DHT22;8330;-33.858;151.184;2022-12-16T05:10:27;25.40;76.90
16441;DHT22;8330;-33.858;151.184;2022-12-16T05:13:14;25.70;76.80
16441;DHT22;8330;-33.858;151.184;2022-12-16T05:16:01;25.60;77.80
16441;DHT22;8330;-33.858;151.184;2022-12-16T05:18:47;25.90;77.90
16441;DHT22;8330;-33.858;151.184;2022-12-16T05:21:34;25.70;79.10
16441;DHT22;8330;-33.858;151.184;2022-12-16T05:24:20;25.40;76.40
16441;DHT22;8330;-33.858;151.184;2022-12-16T05:27:08;25.10;78.00
16441;DHT22;8330;-33.858;151.184;2022-12-16T05:29:55;25.30;78.30
16441;DHT22;8330;-33.858;151.184;2022-12-16T05:32:42;25.20;77.40
16441;DHT22;8330;-33.858;151.184;2022-12-16T05:35:25;24.90;77.50
16441;DHT22;8330;-33.858;151.184;2022-12-16T05:38:12;25.20;77.00
16441;DHT22;8330;-33.858;151.184;2022-12-16T05:40:58;25.40;74.30
16441;DHT22;8330;-33.858;151.184;2022-12-16T05:43:47;25.70;74.90
16441;DHT22;8330;-33.858;151.184;2022-12-16T05:46:34;26.10;74.10
16441;DHT22;8330;-33.858;151.184;2022-12-16T05:49:20;26.10;71.90
16441;DHT22;8330;-33.858;151.184;2022-12-16T05:52:06;26.00;69.90
16441;DHT22;8330;-33.858;151.184;2022-12-16T05:54:53;26.00;71.70
16441;DHT22;8330;-33.858;151.184;2022-12-16T05:57:39;26.50;70.40
16441;DHT22;8330;-33.858;151.184;2022-12-16T06:00:28;26.90;69.60
16441;DHT22;8330;-33.858;151.184;2022-12-16T06:03:14;27.00;68.60
16441;DHT22;8330;-33.858;151.184;2022-12-16T06:06:01;26.90;68.40
16441;DHT22;8330;-33.858;151.184;2022-12-16T06:08:47;26.90;68.80
16441;DHT22;8330;-33.858;151.184;2022-12-16T06:11:34;26.70;68.80
16441;DHT22;8330;-33.858;151.184;2022-12-16T06:14:20;26.50;73.10
16441;DHT22;8330;-33.858;151.184;2022-12-16T06:17:09;26.60;69.70
16441;DHT22;8330;-33.858;151.184;2022-12-16T06:19:55;26.40;68.40
16441;DHT22;8330;-33.858;151.184;2022-12-16T06:22:42;26.20;68.20
16441;DHT22;8330;-33.858;151.184;2022-12-16T06:25:28;25.80;70.60
16441;DHT22;8330;-33.858;151.184;2022-12-16T06:28:15;26.10;70.50
16441;DHT22;8330;-33.858;151.184;2022-12-16T06:31:01;25.90;69.80
16441;DHT22;8330;-33.858;151.184;2022-12-16T06:33:55;25.90;72.40
16441;DHT22;8330;-33.858;151.184;2022-12-16T06:36:42;25.90;73.90
16441;DHT22;8330;-33.858;151.184;2022-12-16T06:39:28;24.90;74.50
16441;DHT22;8330;-33.858;151.184;2022-12-16T06:42:15;24.30;77.30
16441;DHT22;8330;-33.858;151.184;2022-12-16T06:45:01;23.70;78.60
16441;DHT22;8330;-33.858;151.184;2022-12-16T06:47:48;23.20;81.50
16441;DHT22;8330;-33.858;151.184;2022-12-16T06:50:36;22.90;84.80
16441;DHT22;8330;-33.858;151.184;2022-12-16T06:53:23;22.80;85.50
16441;DHT22;8330;-33.858;151.184;2022-12-16T06:56:10;23.30;86.40
16441;DHT22;8330;-33.858;151.184;2022-12-16T06:58:56;23.30;87.80
16441;DHT22;8330;-33.858;151.184;2022-12-16T07:01:43;23.00;86.40
16441;DHT22;8330;-33.858;151.184;2022-12-16T07:04:29;22.80;86.00
16441;DHT22;8330;-33.858;151.184;2022-12-16T07:07:18;22.80;85.00
16441;DHT22;8330;-33.858;151.184;2022-12-16T07:10:05;23.50;81.60
16441;DHT22;8330;-33.858;151.184;2022-12-16T07:12:51;24.50;77.50
16441;DHT22;8330;-33.858;151.184;2022-12-16T07:15:42;24.60;74.00
16441;DHT22;8330;-33.858;151.184;2022-12-16T07:18:28;24.10;78.80
16441;DHT22;8330;-33.858;151.184;2022-12-16T07:21:15;23.80;80.50
16441;DHT22;8330;-33.858;151.184;2022-12-16T07:24:03;24.40;82.70
16441;DHT22;8330;-33.858;151.184;2022-12-16T07:26:52;24.90;78.60
16441;DHT22;8330;-33.858;151.184;2022-12-16T07:29:39;25.20;76.60
16441;DHT22;8330;-33.858;151.184;2022-12-16T07:32:25;24.70;77.50
16441;DHT22;8330;-33.858;151.184;2022-12-16T07:35:12;24.00;79.70
16441;DHT22;8330;-33.858;151.184;2022-12-16T07:37:58;23.80;80.00
16441;DHT22;8330;-33.858;151.184;2022-12-16T07:40:47;23.30;83.40
16441;DHT22;8330;-33.858;151.184;2022-12-16T07:43:34;22.80;84.90
16441;DHT22;8330;-33.858;151.184;2022-12-16T07:46:21;22.40;86.20
16441;DHT22;8330;-33.858;151.184;2022-12-16T07:49:07;22.00;89.80
16441;DHT22;8330;-33.858;151.184;2022-12-16T07:51:54;21.80;90.30
16441;DHT22;8330;-33.858;151.184;2022-12-16T07:54:41;21.60;90.60
16441;DHT22;8330;-33.858;151.184;2022-12-16T07:57:29;21.40;91.60
16441;DHT22;8330;-33.858;151.184;2022-12-16T08:00:16;21.30;92.20
16441;DHT22;8330;-33.858;151.184;2022-12-16T08:03:03;21.10;93.40
16441;DHT22;8330;-33.858;151.184;2022-12-16T08:05:49;21.10;95.20
16441;DHT22;8330;-33.858;151.184;2022-12-16T08:08:36;21.00;95.80
16441;DHT22;8330;-33.858;151.184;2022-12-16T08:11:22;20.90;95.70
16441;DHT22;8330;-33.858;151.184;2022-12-16T08:14:11;20.90;97.30
16441;DHT22;8330;-33.858;151.184;2022-12-16T08:16:57;21.00;99.50
16441;DHT22;8330;-33.858;151.184;2022-12-16T08:19:44;21.00;99.90
16441;DHT22;8330;-33.858;151.184;2022-12-16T08:22:31;21.00;99.30
16441;DHT22;8330;-33.858;151.184;2022-12-16T08:25:20;20.80;98.00
16441;DHT22;8330;-33.858;151.184;2022-12-16T08:28:06;20.50;97.80
16441;DHT22;8330;-33.858;151.184;2022-12-16T08:30:54;20.40;98.50
16441;DHT22;8330;-33.858;151.184;2022-12-16T08:33:41;20.40;98.80
16441;DHT22;8330;-33.858;151.184;2022-12-16T08:36:28;20.50;99.10
16441;DHT22;8330;-33.858;151.184;2022-12-16T08:39:14;20.40;99.80
16441;DHT22;8330;-33.858;151.184;2022-12-16T08:42:01;20.50;99.90
16441;DHT22;8330;-33.858;151.184;2022-12-16T08:44:48;20.40;99.90
16441;DHT22;8330;-33.858;151.184;2022-12-16T08:47:37;20.40;99.90
16441;DHT22;8330;-33.858;151.184;2022-12-16T08:50:23;20.30;99.90
16441;DHT22;8330;-33.858;151.184;2022-12-16T08:53:13;20.20;99.90
16441;DHT22;8330;-33.858;151.184;2022-12-16T08:56:00;20.10;99.90
16441;DHT22;8330;-33.858;151.184;2022-12-16T08:58:50;20.10;99.90
16441;DHT22;8330;-33.858;151.184;2022-12-16T09:01:36;20.10;99.90
16441;DHT22;8330;-33.858;151.184;2022-12-16T09:04:27;20.00;99.90
16441;DHT22;8330;-33.858;151.184;2022-12-16T09:07:14;19.90;99.90
16441;DHT22;8330;-33.858;151.184;2022-12-16T09:10:00;19.90;99.90
16441;DHT22;8330;-33.858;151.184;2022-12-16T09:12:47;19.80;99.90
16441;DHT22;8330;-33.858;151.184;2022-12-16T09:15:33;19.90;99.90
16441;DHT22;8330;-33.858;151.184;2022-12-16T09:18:20;19.90;99.90
16441;DHT22;8330;-33.858;151.184;2022-12-16T09:21:08;19.90;99.90
16441;DHT22;8330;-33.858;151.184;2022-12-16T09:23:57;19.90;99.90
16441;DHT22;8330;-33.858;151.184;2022-12-16T09:26:44;19.80;99.90
16441;DHT22;8330;-33.858;151.184;2022-12-16T09:29:30;19.80;99.90
16441;DHT22;8330;-33.858;151.184;2022-12-16T09:32:16;19.80;99.90
16441;DHT22;8330;-33.858;151.184;2022-12-16T09:35:03;19.70;99.90
16441;DHT22;8330;-33.858;151.184;2022-12-16T09:37:51;19.70;99.90
16441;DHT22;8330;-33.858;151.184;2022-12-16T09:40:41;19.60;99.90
16441;DHT22;8330;-33.858;151.184;2022-12-16T09:43:46;19.60;99.90
16441;DHT22;8330;-33.858;151.184;2022-12-16T09:46:42;19.60;99.90
16441;DHT22;8330;-33.858;151.184;2022-12-16T09:49:42;19.60;99.90
16441;DHT22;8330;-33.858;151.184;2022-12-16T09:52:38;19.50;99.90
16441;DHT22;8330;-33.858;151.184;2022-12-16T09:55:31;19.60;99.90
16441;DHT22;8330;-33.858;151.184;2022-12-16T09:58:20;19.60;99.90
16441;DHT22;8330;-33.858;151.184;2022-12-16T10:01:09;19.50;99.90
16441;DHT22;8330;-33.858;151.184;2022-12-16T10:03:59;19.50;99.90
16441;DHT22;8330;-33.858;151.184;2022-12-16T10:06:47;19.50;99.90
16441;DHT22;8330;-33.858;151.184;2022-12-16T10:09:38;19.50;99.90
16441;DHT22;8330;-33.858;151.184;2022-12-16T10:12:38;19.60;99.90
16441;DHT22;8330;-33.858;151.184;2022-12-16T10:15:34;19.60;99.90
16441;DHT22;8330;-33.858;151.184;2022-12-16T10:18:36;19.40;99.90
16441;DHT22;8330;-33.858;151.184;2022-12-16T10:21:29;19.50;99.90
16441;DHT22;8330;-33.858;151.184;2022-12-16T10:24:25;19.50;99.90
16441;DHT22;8330;-33.858;151.184;2022-12-16T10:27:16;19.60;99.90
16441;DHT22;8330;-33.858;151.184;2022-12-16T10:30:12;19.60;99.90
16441;DHT22;8330;-33.858;151.184;2022-12-16T10:33:00;19.60;99.90
16441;DHT22;8330;-33.858;151.184;2022-12-16T10:35:50;19.50;99.90
16441;DHT22;8330;-33.858;151.184;2022-12-16T10:38:39;19.40;99.90
16441;DHT22;8330;-33.858;151.184;2022-12-16T10:41:31;19.40;99.90
16441;DHT22;8330;-33.858;151.184;2022-12-16T10:44:22;19.40;99.90
16441;DHT22;8330;-33.858;151.184;2022-12-16T10:47:14;19.40;99.90
16441;DHT22;8330;-33.858;151.184;2022-12-16T10:50:01;19.30;99.90
16441;DHT22;8330;-33.858;151.184;2022-12-16T10:52:56;19.30;99.90
16441;DHT22;8330;-33.858;151.184;2022-12-16T10:55:52;19.40;99.90
16441;DHT22;8330;-33.858;151.184;2022-12-16T10:58:48;19.50;99.90
16441;DHT22;8330;-33.858;151.184;2022-12-16T11:01:37;19.40;99.90
16441;DHT22;8330;-33.858;151.184;2022-12-16T11:04:34;19.50;99.90
16441;DHT22;8330;-33.858;151.184;2022-12-16T11:07:36;19.30;99.90
16441;DHT22;8330;-33.858;151.184;2022-12-16T11:10:30;19.30;99.90
16441;DHT22;8330;-33.858;151.184;2022-12-16T11:13:21;19.20;99.90
16441;DHT22;8330;-33.858;151.184;2022-12-16T11:16:11;19.20;99.90
16441;DHT22;8330;-33.858;151.184;2022-12-16T11:18:58;19.20;99.90
16441;DHT22;8330;-33.858;151.184;2022-12-16T11:21:47;19.10;99.90
16441;DHT22;8330;-33.858;151.184;2022-12-16T11:24:34;19.10;99.90
16441;DHT22;8330;-33.858;151.184;2022-12-16T11:27:24;19.10;99.90
16441;DHT22;8330;-33.858;151.184;2022-12-16T11:30:22;19.10;99.90
16441;DHT22;8330;-33.858;151.184;2022-12-16T11:33:17;19.20;99.90
16441;DHT22;8330;-33.858;151.184;2022-12-16T11:36:11;19.20;99.90
16441;DHT22;8330;-33.858;151.184;2022-12-16T11:39:02;19.20;99.90
16441;DHT22;8330;-33.858;151.184;2022-12-16T11:41:51;19.10;99.90
16441;DHT22;8330;-33.858;151.184;2022-12-16T11:44:42;19.10;99.90
16441;DHT22;8330;-33.858;151.184;2022-12-16T11:47:37;19.10;99.90
16441;DHT22;8330;-33.858;151.184;2022-12-16T11:50:27;18.90;99.90
16441;DHT22;8330;-33.858;151.184;2022-12-16T11:53:30;18.90;99.90
16441;DHT22;8330;-33.858;151.184;2022-12-16T11:56:24;18.90;99.90
16441;DHT22;8330;-33.858;151.184;2022-12-16T11:59:16;18.80;99.90
16441;DHT22;8330;-33.858;151.184;2022-12-16T12:02:14;18.80;99.90
16441;DHT22;8330;-33.858;151.184;2022-12-16T12:05:03;18.80;99.90
16441;DHT22;8330;-33.858;151.184;2022-12-16T12:07:52;18.70;99.90
16441;DHT22;8330;-33.858;151.184;2022-12-16T12:10:57;18.80;99.90
16441;DHT22;8330;-33.858;151.184;2022-12-16T12:14:01;18.90;99.90
16441;DHT22;8330;-33.858;151.184;2022-12-16T12:16:59;18.90;99.90
16441;DHT22;8330;-33.858;151.184;2022-12-16T12:19:56;18.90;99.90
16441;DHT22;8330;-33.858;151.184;2022-12-16T12:22:46;18.90;99.90
16441;DHT22;8330;-33.858;151.184;2022-12-16T12:25:39;18.90;99.90
16441;DHT22;8330;-33.858;151.184;2022-12-16T12:28:34;18.80;99.90
16441;DHT22;8330;-33.858;151.184;2022-12-16T12:31:36;18.80;99.90
16441;DHT22;8330;-33.858;151.184;2022-12-16T12:34:29;18.80;99.90
16441;DHT22;8330;-33.858;151.184;2022-12-16T12:37:22;18.90;99.90
16441;DHT22;8330;-33.858;151.184;2022-12-16T12:40:26;18.90;99.90
16441;DHT22;8330;-33.858;151.184;2022-12-16T12:43:25;18.90;99.90
16441;DHT22;8330;-33.858;151.184;2022-12-16T12:46:22;18.90;99.90
16441;DHT22;8330;-33.858;151.184;2022-12-16T12:49:18;18.90;99.90
16441;DHT22;8330;-33.858;151.184;2022-12-16T12:52:14;18.90;99.90
16441;DHT22;8330;-33.858;151.184;2022-12-16T12:55:13;18.90;99.90
16441;DHT22;8330;-33.858;151.184;2022-12-16T12:58:03;18.90;99.90
16441;DHT22;8330;-33.858;151.184;2022-12-16T13:00:52;18.70;99.90
16441;DHT22;8330;-33.858;151.184;2022-12-16T13:03:42;18.70;99.90
16441;DHT22;8330;-33.858;151.184;2022-12-16T13:06:34;18.70;99.90
16441;DHT22;8330;-33.858;151.184;2022-12-16T13:09:33;18.60;99.90
16441;DHT22;8330;-33.858;151.184;2022-12-16T13:12:34;18.50;99.90
16441;DHT22;8330;-33.858;151.184;2022-12-16T13:15:33;18.60;99.90
16441;DHT22;8330;-33.858;151.184;2022-12-16T13:18:29;18.60;99.90
16441;DHT22;8330;-33.858;151.184;2022-12-16T13:21:45;18.70;99.90
16441;DHT22;8330;-33.858;151.184;2022-12-16T13:24:44;18.60;99.90
16441;DHT22;8330;-33.858;151.184;2022-12-16T13:27:50;18.80;99.90
16441;DHT22;8330;-33.858;151.184;2022-12-16T13:30:38;18.80;99.90
16441;DHT22;8330;-33.858;151.184;2022-12-16T13:33:27;18.90;99.90
16441;DHT22;8330;-33.858;151.184;2022-12-16T13:36:15;18.80;99.90
16441;DHT22;8330;-33.858;151.184;2022-12-16T13:39:21;18.80;99.90
16441;DHT22;8330;-33.858;151.184;2022-12-16T13:42:47;18.70;99.90
16441;DHT22;8330;-33.858;151.184;2022-12-16T13:45:36;18.60;99.90
16441;DHT22;8330;-33.858;151.184;2022-12-16T13:48:31;18.60;99.90
16441;DHT22;8330;-33.858;151.184;2022-12-16T13:55:10;18.80;99.90
16441;DHT22;8330;-33.858;151.184;2022-12-16T13:58:04;18.70;99.90
16441;DHT22;8330;-33.858;151.184;2022-12-16T14:01:05;18.60;99.90
16441;DHT22;8330;-33.858;151.184;2022-12-16T14:03:56;18.50;99.90
16441;DHT22;8330;-33.858;151.184;2022-12-16T14:06:43;18.50;99.90
16441;DHT22;8330;-33.858;151.184;2022-12-16T14:09:35;18.60;99.90
16441;DHT22;8330;-33.858;151.184;2022-12-16T14:12:43;18.50;99.90
16441;DHT22;8330;-33.858;151.184;2022-12-16T14:15:35;18.40;99.90
16441;DHT22;8330;-33.858;151.184;2022-12-16T14:18:32;18.50;99.90
16441;DHT22;8330;-33.858;151.184;2022-12-16T14:21:27;18.50;99.90
16441;DHT22;8330;-33.858;151.184;2022-12-16T14:24:21;18.50;99.90
16441;DHT22;8330;-33.858;151.184;2022-12-16T14:27:16;18.60;99.90
16441;DHT22;8330;-33.858;151.184;2022-12-16T14:30:16;18.60;99.90
16441;DHT22;8330;-33.858;151.184;2022-12-16T14:33:22;18.60;99.90
16441;DHT22;8330;-33.858;151.184;2022-12-16T14:36:22;18.60;99.90
16441;DHT22;8330;-33.858;151.184;2022-12-16T14:39:11;18.40;99.90
16441;DHT22;8330;-33.858;151.184;2022-12-16T14:41:55;18.40;99.90
16441;DHT22;8330;-33.858;151.184;2022-12-16T14:44:45;18.30;99.90
16441;DHT22;8330;-33.858;151.184;2022-12-16T14:47:33;18.30;99.90
16441;DHT22;8330;-33.858;151.184;2022-12-16T14:50:27;18.30;99.90
16441;DHT22;8330;-33.858;151.184;2022-12-16T14:53:16;18.30;99.90
16441;DHT22;8330;-33.858;151.184;2022-12-16T14:56:20;18.40;99.90
16441;DHT22;8330;-33.858;151.184;2022-12-16T14:59:13;18.60;99.90
16441;DHT22;8330;-33.858;151.184;2022-12-16T15:02:07;18.60;99.90
16441;DHT22;8330;-33.858;151.184;2022-12-16T15:05:09;18.50;99.90
16441;DHT22;8330;-33.858;151.184;2022-12-16T15:07:56;18.50;99.90
16441;DHT22;8330;-33.858;151.184;2022-12-16T15:10:43;18.50;99.90
16441;DHT22;8330;-33.858;151.184;2022-12-16T15:13:30;18.40;99.90
16441;DHT22;8330;-33.858;151.184;2022-12-16T15:16:23;18.50;99.90
16441;DHT22;8330;-33.858;151.184;2022-12-16T15:19:17;18.40;99.90
16441;DHT22;8330;-33.858;151.184;2022-12-16T15:22:12;18.30;99.90
16441;DHT22;8330;-33.858;151.184;2022-12-16T15:24:59;18.20;99.90
16441;DHT22;8330;-33.858;151.184;2022-12-16T15:27:53;18.00;99.90
16441;DHT22;8330;-33.858;151.184;2022-12-16T15:30:41;18.00;99.90
16441;DHT22;8330;-33.858;151.184;2022-12-16T15:33:29;17.90;99.90
16441;DHT22;8330;-33.858;151.184;2022-12-16T15:36:28;17.80;99.90
16441;DHT22;8330;-33.858;151.184;2022-12-16T15:39:22;17.90;99.90
16441;DHT22;8330;-33.858;151.184;2022-12-16T15:42:19;17.80;99.90
16441;DHT22;8330;-33.858;151.184;2022-12-16T15:45:16;17.80;99.90
16441;DHT22;8330;-33.858;151.184;2022-12-16T15:48:11;17.90;99.90
16441;DHT22;8330;-33.858;151.184;2022-12-16T15:50:58;17.80;99.90
16441;DHT22;8330;-33.858;151.184;2022-12-16T15:53:44;17.90;99.90
16441;DHT22;8330;-33.858;151.184;2022-12-16T15:56:44;17.90;99.90
16441;DHT22;8330;-33.858;151.184;2022-12-16T15:59:32;17.80;99.90
16441;DHT22;8330;-33.858;151.184;2022-12-16T16:02:20;17.80;99.90
16441;DHT22;8330;-33.858;151.184;2022-12-16T16:05:12;17.80;99.90
16441;DHT22;8330;-33.858;151.184;2022-12-16T16:07:59;17.80;99.90
16441;DHT22;8330;-33.858;151.184;2022-12-16T16:10:45;17.90;99.90
16441;DHT22;8330;-33.858;151.184;2022-12-16T16:13:34;17.90;99.90
16441;DHT22;8330;-33.858;151.184;2022-12-16T16:16:21;17.90;99.90
16441;DHT22;8330;-33.858;151.184;2022-12-16T16:19:12;18.00;99.90
16441;DHT22;8330;-33.858;151.184;2022-12-16T16:22:01;17.70;99.90
16441;DHT22;8330;-33.858;151.184;2022-12-16T16:24:47;17.70;99.90
16441;DHT22;8330;-33.858;151.184;2022-12-16T16:27:34;17.70;99.90
16441;DHT22;8330;-33.858;151.184;2022-12-16T16:30:22;17.60;99.90
16441;DHT22;8330;-33.858;151.184;2022-12-16T16:33:09;17.60;99.90
16441;DHT22;8330;-33.858;151.184;2022-12-16T16:35:56;17.60;99.90
16441;DHT22;8330;-33.858;151.184;2022-12-16T16:38:42;17.60;99.90
16441;DHT22;8330;-33.858;151.184;2022-12-16T16:41:29;17.50;99.90
16441;DHT22;8330;-33.858;151.184;2022-12-16T16:44:15;17.50;99.90
16441;DHT22;8330;-33.858;151.184;2022-12-16T16:47:04;17.60;99.90
16441;DHT22;8330;-33.858;151.184;2022-12-16T16:49:54;17.70;99.90
16441;DHT22;8330;-33.858;151.184;2022-12-16T16:52:41;17.60;99.90
16441;DHT22;8330;-33.858;151.184;2022-12-16T16:55:27;17.70;99.90
16441;DHT22;8330;-33.858;151.184;2022-12-16T16:58:15;17.60;99.90
16441;DHT22;8330;-33.858;151.184;2022-12-16T17:01:05;17.60;99.90
16441;DHT22;8330;-33.858;151.184;2022-12-16T17:03:53;17.60;99.90
16441;DHT22;8330;-33.858;151.184;2022-12-16T17:06:40;17.50;99.90